sensor_id;sensor_type;location;lat;lon;timestamp;temperature;humidity
27671;DHT22;15077;49.704;9.908;2022-08-19T00:00:47;25.90;52.70
27671;DHT22;15077;49.704;9.908;2022-08-19T00:03:14;25.90;52.90
27671;DHT22;15077;49.704;9.908;2022-08-19T00:05:39;25.80;52.80
27671;DHT22;15077;49.704;9.908;2022-08-19T00:08:07;25.80;52.90
27671;DHT22;15077;49.704;9.908;2022-08-19T00:10:32;25.80;52.90
27671;DHT22;15077;49.704;9.908;2022-08-19T00:12:59;25.80;53.00
27671;DHT22;15077;49.704;9.908;2022-08-19T00:15:25;25.80;53.00
27671;DHT22;15077;49.704;9.908;2022-08-19T00:17:51;25.70;52.90
27671;DHT22;15077;49.704;9.908;2022-08-19T00:20:20;25.80;53.00
27671;DHT22;15077;49.704;9.908;2022-08-19T00:22:47;25.70;53.00
27671;DHT22;15077;49.704;9.908;2022-08-19T00:25:13;25.70;52.90
27671;DHT22;15077;49.704;9.908;2022-08-19T00:27:41;25.70;52.80
27671;DHT22;15077;49.704;9.908;2022-08-19T00:30:07;25.70;53.00
27671;DHT22;15077;49.704;9.908;2022-08-19T00:32:35;25.70;52.90
27671;DHT22;15077;49.704;9.908;2022-08-19T00:35:01;25.70;53.00
27671;DHT22;15077;49.704;9.908;2022-08-19T00:37:28;25.70;52.90
27671;DHT22;15077;49.704;9.908;2022-08-19T00:39:54;25.70;53.00
27671;DHT22;15077;49.704;9.908;2022-08-19T00:42:22;25.70;53.00
27671;DHT22;15077;49.704;9.908;2022-08-19T00:44:48;25.60;53.00
27671;DHT22;15077;49.704;9.908;2022-08-19T00:47:16;25.60;53.10
27671;DHT22;15077;49.704;9.908;2022-08-19T00:49:45;25.60;53.00
27671;DHT22;15077;49.704;9.908;2022-08-19T00:52:38;25.60;53.10
27671;DHT22;15077;49.704;9.908;2022-08-19T00:55:14;25.60;53.30
27671;DHT22;15077;49.704;9.908;2022-08-19T00:57:51;25.50;53.10
27671;DHT22;15077;49.704;9.908;2022-08-19T01:00:21;25.50;53.20
27671;DHT22;15077;49.704;9.908;2022-08-19T01:02:48;25.40;53.10
27671;DHT22;15077;49.704;9.908;2022-08-19T01:05:18;25.40;53.00
27671;DHT22;15077;49.704;9.908;2022-08-19T01:07:48;25.40;53.80
27671;DHT22;15077;49.704;9.908;2022-08-19T01:10:20;25.40;53.30
27671;DHT22;15077;49.704;9.908;2022-08-19T01:12:50;25.30;53.20
27671;DHT22;15077;49.704;9.908;2022-08-19T01:15:21;25.30;53.20
27671;DHT22;15077;49.704;9.908;2022-08-19T01:17:51;25.20;53.40
27671;DHT22;15077;49.704;9.908;2022-08-19T01:20:22;25.20;53.40
27671;DHT22;15077;49.704;9.908;2022-08-19T01:22:55;25.10;53.50
27671;DHT22;15077;49.704;9.908;2022-08-19T01:25:26;25.10;53.50
27671;DHT22;15077;49.704;9.908;2022-08-19T01:27:54;25.10;53.60
27671;DHT22;15077;49.704;9.908;2022-08-19T01:30:27;25.10;53.30
27671;DHT22;15077;49.704;9.908;2022-08-19T01:32:56;25.10;53.50
27671;DHT22;15077;49.704;9.908;2022-08-19T01:35:24;25.10;53.60
27671;DHT22;15077;49.704;9.908;2022-08-19T01:38:01;25.00;53.70
27671;DHT22;15077;49.704;9.908;2022-08-19T01:40:37;25.00;53.80
27671;DHT22;15077;49.704;9.908;2022-08-19T01:43:05;25.00;53.60
27671;DHT22;15077;49.704;9.908;2022-08-19T01:45:33;25.00;53.80
27671;DHT22;15077;49.704;9.908;2022-08-19T01:48:00;24.90;53.80
27671;DHT22;15077;49.704;9.908;2022-08-19T01:50:27;25.00;53.80
27671;DHT22;15077;49.704;9.908;2022-08-19T01:52:54;24.90;53.90
27671;DHT22;15077;49.704;9.908;2022-08-19T01:55:21;24.90;53.70
27671;DHT22;15077;49.704;9.908;2022-08-19T01:57:53;24.90;53.80
27671;DHT22;15077;49.704;9.908;2022-08-19T02:00:22;24.90;53.90
27671;DHT22;15077;49.704;9.908;2022-08-19T02:02:50;24.90;53.80
27671;DHT22;15077;49.704;9.908;2022-08-19T02:05:16;24.90;53.80
27671;DHT22;15077;49.704;9.908;2022-08-19T02:07:44;24.90;53.90
27671;DHT22;15077;49.704;9.908;2022-08-19T02:10:13;24.90;53.90
27671;DHT22;15077;49.704;9.908;2022-08-19T02:12:40;24.90;53.90
27671;DHT22;15077;49.704;9.908;2022-08-19T02:15:06;24.90;53.90
27671;DHT22;15077;49.704;9.908;2022-08-19T02:17:33;25.00;54.00
27671;DHT22;15077;49.704;9.908;2022-08-19T02:19:59;24.90;54.00
27671;DHT22;15077;49.704;9.908;2022-08-19T02:22:26;24.90;54.00
27671;DHT22;15077;49.704;9.908;2022-08-19T02:24:53;24.90;54.20
27671;DHT22;15077;49.704;9.908;2022-08-19T02:27:20;24.90;54.00
27671;DHT22;15077;49.704;9.908;2022-08-19T02:29:48;24.90;54.00
27671;DHT22;15077;49.704;9.908;2022-08-19T02:32:15;24.90;54.00
27671;DHT22;15077;49.704;9.908;2022-08-19T02:34:42;24.90;54.20
27671;DHT22;15077;49.704;9.908;2022-08-19T02:37:08;24.90;54.10
27671;DHT22;15077;49.704;9.908;2022-08-19T02:39:54;24.90;54.10
27671;DHT22;15077;49.704;9.908;2022-08-19T02:42:20;24.90;54.40
27671;DHT22;15077;49.704;9.908;2022-08-19T02:44:46;24.80;54.20
27671;DHT22;15077;49.704;9.908;2022-08-19T02:47:11;24.80;54.30
27671;DHT22;15077;49.704;9.908;2022-08-19T02:49:39;24.80;54.40
27671;DHT22;15077;49.704;9.908;2022-08-19T02:52:05;24.80;54.50
27671;DHT22;15077;49.704;9.908;2022-08-19T02:54:31;24.80;54.30
27671;DHT22;15077;49.704;9.908;2022-08-19T02:56:57;24.80;54.30
27671;DHT22;15077;49.704;9.908;2022-08-19T02:59:23;24.80;54.40
27671;DHT22;15077;49.704;9.908;2022-08-19T03:01:51;24.80;54.40
27671;DHT22;15077;49.704;9.908;2022-08-19T03:04:17;24.80;54.40
27671;DHT22;15077;49.704;9.908;2022-08-19T03:06:46;24.80;54.50
27671;DHT22;15077;49.704;9.908;2022-08-19T03:09:13;24.80;54.50
27671;DHT22;15077;49.704;9.908;2022-08-19T03:11:40;24.80;54.50
27671;DHT22;15077;49.704;9.908;2022-08-19T03:14:08;24.80;54.70
27671;DHT22;15077;49.704;9.908;2022-08-19T03:16:44;24.70;54.60
27671;DHT22;15077;49.704;9.908;2022-08-19T03:19:13;24.70;54.70
27671;DHT22;15077;49.704;9.908;2022-08-19T03:21:43;24.70;54.60
27671;DHT22;15077;49.704;9.908;2022-08-19T03:24:13;24.70;54.60
27671;DHT22;15077;49.704;9.908;2022-08-19T03:26:42;24.70;54.70
27671;DHT22;15077;49.704;9.908;2022-08-19T03:29:10;24.60;54.70
27671;DHT22;15077;49.704;9.908;2022-08-19T03:31:39;24.60;54.70
27671;DHT22;15077;49.704;9.908;2022-08-19T03:34:06;24.60;54.80
27671;DHT22;15077;49.704;9.908;2022-08-19T03:36:32;24.50;54.90
27671;DHT22;15077;49.704;9.908;2022-08-19T03:39:00;24.50;55.00
27671;DHT22;15077;49.704;9.908;2022-08-19T03:41:30;24.40;55.00
27671;DHT22;15077;49.704;9.908;2022-08-19T03:43:57;24.40;55.00
27671;DHT22;15077;49.704;9.908;2022-08-19T03:46:26;24.40;55.10
27671;DHT22;15077;49.704;9.908;2022-08-19T03:48:56;24.40;55.20
27671;DHT22;15077;49.704;9.908;2022-08-19T03:51:31;24.30;55.30
27671;DHT22;15077;49.704;9.908;2022-08-19T03:54:07;24.30;55.30
27671;DHT22;15077;49.704;9.908;2022-08-19T03:56:39;24.30;55.40
27671;DHT22;15077;49.704;9.908;2022-08-19T03:59:08;24.20;55.30
27671;DHT22;15077;49.704;9.908;2022-08-19T04:01:36;24.20;55.40
27671;DHT22;15077;49.704;9.908;2022-08-19T04:04:03;24.20;55.40
27671;DHT22;15077;49.704;9.908;2022-08-19T04:06:31;24.20;55.40
27671;DHT22;15077;49.704;9.908;2022-08-19T04:09:00;24.10;55.40
27671;DHT22;15077;49.704;9.908;2022-08-19T04:11:33;24.10;55.50
27671;DHT22;15077;49.704;9.908;2022-08-19T04:14:01;24.20;55.60
27671;DHT22;15077;49.704;9.908;2022-08-19T04:16:28;24.20;55.50
27671;DHT22;15077;49.704;9.908;2022-08-19T04:18:55;24.20;55.50
27671;DHT22;15077;49.704;9.908;2022-08-19T04:21:24;24.20;55.60
27671;DHT22;15077;49.704;9.908;2022-08-19T04:23:51;24.20;55.50
27671;DHT22;15077;49.704;9.908;2022-08-19T04:26:30;24.20;55.40
27671;DHT22;15077;49.704;9.908;2022-08-19T04:29:04;24.20;55.60
27671;DHT22;15077;49.704;9.908;2022-08-19T04:31:32;24.20;55.60
27671;DHT22;15077;49.704;9.908;2022-08-19T04:34:04;24.20;55.50
27671;DHT22;15077;49.704;9.908;2022-08-19T04:36:34;24.20;55.50
27671;DHT22;15077;49.704;9.908;2022-08-19T04:39:06;24.20;55.50
27671;DHT22;15077;49.704;9.908;2022-08-19T04:41:37;24.20;55.50
27671;DHT22;15077;49.704;9.908;2022-08-19T04:44:23;24.20;55.60
27671;DHT22;15077;49.704;9.908;2022-08-19T04:46:50;24.20;55.60
27671;DHT22;15077;49.704;9.908;2022-08-19T04:49:20;24.20;55.70
27671;DHT22;15077;49.704;9.908;2022-08-19T04:51:48;24.20;55.80
27671;DHT22;15077;49.704;9.908;2022-08-19T04:54:17;24.20;55.60
27671;DHT22;15077;49.704;9.908;2022-08-19T04:56:49;24.20;55.90
27671;DHT22;15077;49.704;9.908;2022-08-19T04:59:16;24.10;55.70
27671;DHT22;15077;49.704;9.908;2022-08-19T05:01:46;24.20;55.80
27671;DHT22;15077;49.704;9.908;2022-08-19T05:04:17;24.20;55.80
27671;DHT22;15077;49.704;9.908;2022-08-19T05:06:45;24.20;55.90
27671;DHT22;15077;49.704;9.908;2022-08-19T05:09:14;24.20;56.10
27671;DHT22;15077;49.704;9.908;2022-08-19T05:11:42;24.20;56.20
27671;DHT22;15077;49.704;9.908;2022-08-19T05:14:09;24.20;56.20
27671;DHT22;15077;49.704;9.908;2022-08-19T05:16:37;24.20;56.20
27671;DHT22;15077;49.704;9.908;2022-08-19T05:19:04;24.20;56.40
27671;DHT22;15077;49.704;9.908;2022-08-19T05:21:49;24.20;56.20
27671;DHT22;15077;49.704;9.908;2022-08-19T05:24:33;24.20;56.40
27671;DHT22;15077;49.704;9.908;2022-08-19T05:27:00;24.20;56.30
27671;DHT22;15077;49.704;9.908;2022-08-19T05:29:29;24.20;56.40
27671;DHT22;15077;49.704;9.908;2022-08-19T05:31:57;24.20;56.50
27671;DHT22;15077;49.704;9.908;2022-08-19T05:34:25;24.20;56.40
27671;DHT22;15077;49.704;9.908;2022-08-19T05:36:54;24.20;56.60
27671;DHT22;15077;49.704;9.908;2022-08-19T05:39:26;24.20;57.20
27671;DHT22;15077;49.704;9.908;2022-08-19T05:41:59;24.20;56.70
27671;DHT22;15077;49.704;9.908;2022-08-19T05:44:30;24.20;56.60
27671;DHT22;15077;49.704;9.908;2022-08-19T05:47:02;24.30;56.80
27671;DHT22;15077;49.704;9.908;2022-08-19T05:49:32;24.20;56.70
27671;DHT22;15077;49.704;9.908;2022-08-19T05:52:07;24.30;56.80
27671;DHT22;15077;49.704;9.908;2022-08-19T05:54:40;24.30;56.80
27671;DHT22;15077;49.704;9.908;2022-08-19T05:57:09;24.20;56.70
27671;DHT22;15077;49.704;9.908;2022-08-19T05:59:35;24.30;56.70
27671;DHT22;15077;49.704;9.908;2022-08-19T06:02:03;24.30;56.90
27671;DHT22;15077;49.704;9.908;2022-08-19T06:04:30;24.30;56.90
27671;DHT22;15077;49.704;9.908;2022-08-19T06:06:57;24.30;56.90
27671;DHT22;15077;49.704;9.908;2022-08-19T06:09:23;24.30;56.90
27671;DHT22;15077;49.704;9.908;2022-08-19T06:11:53;24.30;56.70
27671;DHT22;15077;49.704;9.908;2022-08-19T06:14:31;24.30;56.90
27671;DHT22;15077;49.704;9.908;2022-08-19T06:17:00;24.40;56.70
27671;DHT22;15077;49.704;9.908;2022-08-19T06:19:28;24.40;56.90
27671;DHT22;15077;49.704;9.908;2022-08-19T06:21:59;24.40;56.90
27671;DHT22;15077;49.704;9.908;2022-08-19T06:24:27;24.40;56.80
27671;DHT22;15077;49.704;9.908;2022-08-19T06:26:56;24.40;56.90
27671;DHT22;15077;49.704;9.908;2022-08-19T06:29:24;24.50;57.00
27671;DHT22;15077;49.704;9.908;2022-08-19T06:31:54;24.50;56.90
27671;DHT22;15077;49.704;9.908;2022-08-19T06:34:21;24.50;57.00
27671;DHT22;15077;49.704;9.908;2022-08-19T06:36:50;24.50;56.90
27671;DHT22;15077;49.704;9.908;2022-08-19T06:39:20;24.60;57.00
27671;DHT22;15077;49.704;9.908;2022-08-19T06:41:49;24.60;56.80
27671;DHT22;15077;49.704;9.908;2022-08-19T06:44:20;24.60;56.80
27671;DHT22;15077;49.704;9.908;2022-08-19T06:46:48;24.70;56.80
27671;DHT22;15077;49.704;9.908;2022-08-19T06:49:16;24.70;56.90
27671;DHT22;15077;49.704;9.908;2022-08-19T06:51:44;24.70;57.00
27671;DHT22;15077;49.704;9.908;2022-08-19T06:54:13;24.80;57.00
27671;DHT22;15077;49.704;9.908;2022-08-19T06:56:39;24.80;56.90
27671;DHT22;15077;49.704;9.908;2022-08-19T06:59:11;24.80;56.90
27671;DHT22;15077;49.704;9.908;2022-08-19T07:01:43;24.80;57.00
27671;DHT22;15077;49.704;9.908;2022-08-19T07:04:13;24.90;57.00
27671;DHT22;15077;49.704;9.908;2022-08-19T07:06:42;24.90;56.80
27671;DHT22;15077;49.704;9.908;2022-08-19T07:09:10;24.90;56.90
27671;DHT22;15077;49.704;9.908;2022-08-19T07:11:44;24.90;57.00
27671;DHT22;15077;49.704;9.908;2022-08-19T07:14:12;24.90;57.00
27671;DHT22;15077;49.704;9.908;2022-08-19T07:16:39;25.00;57.00
27671;DHT22;15077;49.704;9.908;2022-08-19T07:19:05;25.00;57.00
27671;DHT22;15077;49.704;9.908;2022-08-19T07:21:32;25.00;57.70
27671;DHT22;15077;49.704;9.908;2022-08-19T07:23:59;25.00;57.10
27671;DHT22;15077;49.704;9.908;2022-08-19T07:26:29;25.00;57.00
27671;DHT22;15077;49.704;9.908;2022-08-19T07:28:59;25.10;57.10
27671;DHT22;15077;49.704;9.908;2022-08-19T07:31:27;25.10;57.10
27671;DHT22;15077;49.704;9.908;2022-08-19T07:33:55;25.10;57.20
27671;DHT22;15077;49.704;9.908;2022-08-19T07:36:24;25.10;57.20
27671;DHT22;15077;49.704;9.908;2022-08-19T07:39:00;25.20;57.20
27671;DHT22;15077;49.704;9.908;2022-08-19T07:41:29;25.20;57.30
27671;DHT22;15077;49.704;9.908;2022-08-19T07:43:56;25.30;57.40
27671;DHT22;15077;49.704;9.908;2022-08-19T07:46:22;25.30;57.30
27671;DHT22;15077;49.704;9.908;2022-08-19T07:48:49;25.40;57.20
27671;DHT22;15077;49.704;9.908;2022-08-19T07:51:19;25.40;57.30
27671;DHT22;15077;49.704;9.908;2022-08-19T07:53:47;25.40;56.80
27671;DHT22;15077;49.704;9.908;2022-08-19T07:56:17;25.50;57.30
27671;DHT22;15077;49.704;9.908;2022-08-19T07:58:46;25.50;57.30
27671;DHT22;15077;49.704;9.908;2022-08-19T08:01:16;25.60;57.40
27671;DHT22;15077;49.704;9.908;2022-08-19T08:03:45;25.70;57.40
27671;DHT22;15077;49.704;9.908;2022-08-19T08:06:29;25.70;57.30
27671;DHT22;15077;49.704;9.908;2022-08-19T08:09:17;25.80;57.30
27671;DHT22;15077;49.704;9.908;2022-08-19T08:14:22;25.90;57.20
27671;DHT22;15077;49.704;9.908;2022-08-19T08:16:51;26.00;57.20
27671;DHT22;15077;49.704;9.908;2022-08-19T08:19:19;26.00;57.00
27671;DHT22;15077;49.704;9.908;2022-08-19T08:21:48;26.00;56.90
27671;DHT22;15077;49.704;9.908;2022-08-19T08:24:16;26.10;56.90
27671;DHT22;15077;49.704;9.908;2022-08-19T08:26:42;26.10;56.70
27671;DHT22;15077;49.704;9.908;2022-08-19T08:29:10;26.10;56.60
27671;DHT22;15077;49.704;9.908;2022-08-19T08:31:37;26.10;56.60
27671;DHT22;15077;49.704;9.908;2022-08-19T08:34:04;26.10;56.70
27671;DHT22;15077;49.704;9.908;2022-08-19T08:36:30;26.10;56.70
27671;DHT22;15077;49.704;9.908;2022-08-19T08:38:59;26.10;56.60
27671;DHT22;15077;49.704;9.908;2022-08-19T08:44:43;26.10;56.70
27671;DHT22;15077;49.704;9.908;2022-08-19T08:47:25;26.10;56.70
27671;DHT22;15077;49.704;9.908;2022-08-19T08:49:59;26.10;56.60
27671;DHT22;15077;49.704;9.908;2022-08-19T08:52:45;26.10;56.80
27671;DHT22;15077;49.704;9.908;2022-08-19T08:55:20;26.20;56.70
27671;DHT22;15077;49.704;9.908;2022-08-19T09:00:34;26.20;56.70
27671;DHT22;15077;49.704;9.908;2022-08-19T09:03:10;26.30;56.70
27671;DHT22;15077;49.704;9.908;2022-08-19T09:06:03;26.30;56.60
27671;DHT22;15077;49.704;9.908;2022-08-19T09:08:49;26.30;56.60
27671;DHT22;15077;49.704;9.908;2022-08-19T09:14:56;26.40;56.60
27671;DHT22;15077;49.704;9.908;2022-08-19T09:17:30;26.40;56.60
27671;DHT22;15077;49.704;9.908;2022-08-19T09:20:19;26.40;56.60
27671;DHT22;15077;49.704;9.908;2022-08-19T09:22:46;26.50;56.60
27671;DHT22;15077;49.704;9.908;2022-08-19T09:25:16;26.50;56.60
27671;DHT22;15077;49.704;9.908;2022-08-19T09:27:45;26.50;56.60
27671;DHT22;15077;49.704;9.908;2022-08-19T09:30:18;26.60;56.70
27671;DHT22;15077;49.704;9.908;2022-08-19T09:32:48;26.60;56.60
27671;DHT22;15077;49.704;9.908;2022-08-19T09:35:14;26.60;56.60
27671;DHT22;15077;49.704;9.908;2022-08-19T09:37:42;26.70;56.60
27671;DHT22;15077;49.704;9.908;2022-08-19T09:40:09;26.70;56.50
27671;DHT22;15077;49.704;9.908;2022-08-19T09:42:37;26.80;56.50
27671;DHT22;15077;49.704;9.908;2022-08-19T09:45:04;26.80;56.40
27671;DHT22;15077;49.704;9.908;2022-08-19T09:47:30;26.90;56.50
27671;DHT22;15077;49.704;9.908;2022-08-19T09:49:57;26.90;56.40
27671;DHT22;15077;49.704;9.908;2022-08-19T09:52:23;26.90;56.30
27671;DHT22;15077;49.704;9.908;2022-08-19T09:54:52;27.00;56.20
27671;DHT22;15077;49.704;9.908;2022-08-19T09:57:18;27.00;56.10
27671;DHT22;15077;49.704;9.908;2022-08-19T09:59:44;27.10;55.90
27671;DHT22;15077;49.704;9.908;2022-08-19T10:02:10;27.10;55.90
27671;DHT22;15077;49.704;9.908;2022-08-19T10:04:36;27.10;55.90
27671;DHT22;15077;49.704;9.908;2022-08-19T10:07:20;27.20;55.80
27671;DHT22;15077;49.704;9.908;2022-08-19T10:09:47;27.20;55.60
27671;DHT22;15077;49.704;9.908;2022-08-19T10:12:13;27.20;55.70
27671;DHT22;15077;49.704;9.908;2022-08-19T10:14:41;27.20;55.70
27671;DHT22;15077;49.704;9.908;2022-08-19T10:17:07;27.20;55.70
27671;DHT22;15077;49.704;9.908;2022-08-19T10:19:33;27.20;55.50
27671;DHT22;15077;49.704;9.908;2022-08-19T10:22:06;27.20;55.50
27671;DHT22;15077;49.704;9.908;2022-08-19T10:24:35;27.20;55.40
27671;DHT22;15077;49.704;9.908;2022-08-19T10:27:01;27.20;55.20
27671;DHT22;15077;49.704;9.908;2022-08-19T10:29:30;27.20;55.10
27671;DHT22;15077;49.704;9.908;2022-08-19T10:31:58;27.20;55.00
27671;DHT22;15077;49.704;9.908;2022-08-19T10:34:28;27.20;54.90
27671;DHT22;15077;49.704;9.908;2022-08-19T10:36:56;27.20;55.00
27671;DHT22;15077;49.704;9.908;2022-08-19T10:39:23;27.20;54.70
27671;DHT22;15077;49.704;9.908;2022-08-19T10:41:49;27.30;54.60
27671;DHT22;15077;49.704;9.908;2022-08-19T10:44:15;27.30;54.60
27671;DHT22;15077;49.704;9.908;2022-08-19T10:46:43;27.30;54.40
27671;DHT22;15077;49.704;9.908;2022-08-19T10:49:11;27.30;54.30
27671;DHT22;15077;49.704;9.908;2022-08-19T10:51:39;27.40;54.30
27671;DHT22;15077;49.704;9.908;2022-08-19T10:54:25;27.40;54.20
27671;DHT22;15077;49.704;9.908;2022-08-19T10:57:11;27.50;54.30
27671;DHT22;15077;49.704;9.908;2022-08-19T10:59:37;27.50;54.00
27671;DHT22;15077;49.704;9.908;2022-08-19T11:02:06;27.60;54.10
27671;DHT22;15077;49.704;9.908;2022-08-19T11:04:36;27.60;53.90
27671;DHT22;15077;49.704;9.908;2022-08-19T11:07:04;27.70;53.70
27671;DHT22;15077;49.704;9.908;2022-08-19T11:09:37;27.80;53.70
27671;DHT22;15077;49.704;9.908;2022-08-19T11:12:07;27.80;53.40
27671;DHT22;15077;49.704;9.908;2022-08-19T11:14:35;27.90;53.10
27671;DHT22;15077;49.704;9.908;2022-08-19T11:17:03;27.90;53.00
27671;DHT22;15077;49.704;9.908;2022-08-19T11:19:30;28.00;52.60
27671;DHT22;15077;49.704;9.908;2022-08-19T11:21:57;28.00;52.50
27671;DHT22;15077;49.704;9.908;2022-08-19T11:24:27;28.10;52.60
27671;DHT22;15077;49.704;9.908;2022-08-19T11:26:58;28.10;52.60
27671;DHT22;15077;49.704;9.908;2022-08-19T11:29:28;28.20;52.30
27671;DHT22;15077;49.704;9.908;2022-08-19T11:31:54;28.20;52.00
27671;DHT22;15077;49.704;9.908;2022-08-19T11:34:23;28.20;51.50
27671;DHT22;15077;49.704;9.908;2022-08-19T11:36:53;28.30;51.50
27671;DHT22;15077;49.704;9.908;2022-08-19T11:39:24;28.30;51.40
27671;DHT22;15077;49.704;9.908;2022-08-19T11:41:51;28.30;51.40
27671;DHT22;15077;49.704;9.908;2022-08-19T11:44:17;28.40;51.50
27671;DHT22;15077;49.704;9.908;2022-08-19T11:46:44;28.30;51.50
27671;DHT22;15077;49.704;9.908;2022-08-19T11:49:12;28.40;51.40
27671;DHT22;15077;49.704;9.908;2022-08-19T11:51:44;28.40;51.00
27671;DHT22;15077;49.704;9.908;2022-08-19T11:54:13;28.50;50.80
27671;DHT22;15077;49.704;9.908;2022-08-19T11:56:40;28.50;51.00
27671;DHT22;15077;49.704;9.908;2022-08-19T11:59:06;28.50;51.00
27671;DHT22;15077;49.704;9.908;2022-08-19T12:01:33;28.60;50.70
27671;DHT22;15077;49.704;9.908;2022-08-19T12:04:00;28.60;50.80
27671;DHT22;15077;49.704;9.908;2022-08-19T12:06:31;28.70;50.50
27671;DHT22;15077;49.704;9.908;2022-08-19T12:09:04;28.70;50.50
27671;DHT22;15077;49.704;9.908;2022-08-19T12:11:33;28.80;50.30
27671;DHT22;15077;49.704;9.908;2022-08-19T12:13:59;28.90;49.80
27671;DHT22;15077;49.704;9.908;2022-08-19T12:16:27;28.90;49.40
27671;DHT22;15077;49.704;9.908;2022-08-19T12:18:55;28.90;49.60
27671;DHT22;15077;49.704;9.908;2022-08-19T12:21:25;28.90;49.50
27671;DHT22;15077;49.704;9.908;2022-08-19T12:23:56;28.90;48.60
27671;DHT22;15077;49.704;9.908;2022-08-19T12:26:25;28.90;49.20
27671;DHT22;15077;49.704;9.908;2022-08-19T12:28:52;28.90;49.20
27671;DHT22;15077;49.704;9.908;2022-08-19T12:31:18;28.90;49.20
27671;DHT22;15077;49.704;9.908;2022-08-19T12:33:46;29.00;48.90
27671;DHT22;15077;49.704;9.908;2022-08-19T12:36:14;29.00;48.70
27671;DHT22;15077;49.704;9.908;2022-08-19T12:38:41;29.00;48.80
27671;DHT22;15077;49.704;9.908;2022-08-19T12:41:12;29.00;49.10
27671;DHT22;15077;49.704;9.908;2022-08-19T12:43:39;29.00;48.90
27671;DHT22;15077;49.704;9.908;2022-08-19T12:46:07;29.00;49.00
27671;DHT22;15077;49.704;9.908;2022-08-19T12:48:35;29.00;49.10
27671;DHT22;15077;49.704;9.908;2022-08-19T12:51:10;29.00;48.90
27671;DHT22;15077;49.704;9.908;2022-08-19T12:53:39;29.00;49.10
27671;DHT22;15077;49.704;9.908;2022-08-19T12:56:06;29.00;48.80
27671;DHT22;15077;49.704;9.908;2022-08-19T12:58:33;28.90;48.90
27671;DHT22;15077;49.704;9.908;2022-08-19T13:01:06;28.90;49.40
27671;DHT22;15077;49.704;9.908;2022-08-19T13:03:33;28.90;48.70
27671;DHT22;15077;49.704;9.908;2022-08-19T13:05:59;28.90;48.70
27671;DHT22;15077;49.704;9.908;2022-08-19T13:08:25;29.00;48.90
27671;DHT22;15077;49.704;9.908;2022-08-19T13:10:51;29.00;48.60
27671;DHT22;15077;49.704;9.908;2022-08-19T13:13:17;29.00;48.70
27671;DHT22;15077;49.704;9.908;2022-08-19T13:15:43;29.00;48.70
27671;DHT22;15077;49.704;9.908;2022-08-19T13:18:12;29.10;48.40
27671;DHT22;15077;49.704;9.908;2022-08-19T13:20:39;29.10;48.20
27671;DHT22;15077;49.704;9.908;2022-08-19T13:23:07;29.10;48.10
27671;DHT22;15077;49.704;9.908;2022-08-19T13:25:33;29.10;48.10
27671;DHT22;15077;49.704;9.908;2022-08-19T13:27:59;29.20;48.00
27671;DHT22;15077;49.704;9.908;2022-08-19T13:30:27;29.20;48.10
27671;DHT22;15077;49.704;9.908;2022-08-19T13:33:12;29.20;47.70
27671;DHT22;15077;49.704;9.908;2022-08-19T13:35:49;29.30;47.50
27671;DHT22;15077;49.704;9.908;2022-08-19T13:38:22;29.30;47.20
27671;DHT22;15077;49.704;9.908;2022-08-19T13:40:51;29.40;47.30
27671;DHT22;15077;49.704;9.908;2022-08-19T13:43:24;29.40;47.30
27671;DHT22;15077;49.704;9.908;2022-08-19T13:45:54;29.40;47.10
27671;DHT22;15077;49.704;9.908;2022-08-19T13:48:24;29.50;46.30
27671;DHT22;15077;49.704;9.908;2022-08-19T13:50:51;29.50;46.60
27671;DHT22;15077;49.704;9.908;2022-08-19T13:53:17;29.60;46.70
27671;DHT22;15077;49.704;9.908;2022-08-19T13:55:44;29.60;46.60
27671;DHT22;15077;49.704;9.908;2022-08-19T13:58:11;29.60;46.10
27671;DHT22;15077;49.704;9.908;2022-08-19T14:00:40;29.70;45.90
27671;DHT22;15077;49.704;9.908;2022-08-19T14:03:09;29.70;46.00
27671;DHT22;15077;49.704;9.908;2022-08-19T14:05:36;29.70;45.90
27671;DHT22;15077;49.704;9.908;2022-08-19T14:08:03;29.70;46.00
27671;DHT22;15077;49.704;9.908;2022-08-19T14:10:29;29.70;46.00
27671;DHT22;15077;49.704;9.908;2022-08-19T14:12:59;29.80;45.90
27671;DHT22;15077;49.704;9.908;2022-08-19T14:15:28;29.80;45.70
27671;DHT22;15077;49.704;9.908;2022-08-19T14:17:55;29.80;45.10
27671;DHT22;15077;49.704;9.908;2022-08-19T14:20:22;29.80;45.30
27671;DHT22;15077;49.704;9.908;2022-08-19T14:22:49;29.80;45.60
27671;DHT22;15077;49.704;9.908;2022-08-19T14:25:20;29.80;45.90
27671;DHT22;15077;49.704;9.908;2022-08-19T14:27:48;29.80;45.90
27671;DHT22;15077;49.704;9.908;2022-08-19T14:30:17;29.80;46.00
27671;DHT22;15077;49.704;9.908;2022-08-19T14:32:46;29.80;45.90
27671;DHT22;15077;49.704;9.908;2022-08-19T14:35:14;29.80;45.70
27671;DHT22;15077;49.704;9.908;2022-08-19T14:37:44;29.80;45.50
27671;DHT22;15077;49.704;9.908;2022-08-19T14:40:14;29.80;45.30
27671;DHT22;15077;49.704;9.908;2022-08-19T14:42:43;29.80;45.00
27671;DHT22;15077;49.704;9.908;2022-08-19T14:45:11;29.80;45.20
27671;DHT22;15077;49.704;9.908;2022-08-19T14:47:38;29.80;45.30
27671;DHT22;15077;49.704;9.908;2022-08-19T14:50:07;29.80;45.20
27671;DHT22;15077;49.704;9.908;2022-08-19T14:52:36;29.80;45.20
27671;DHT22;15077;49.704;9.908;2022-08-19T14:55:03;29.80;45.50
27671;DHT22;15077;49.704;9.908;2022-08-19T14:57:30;29.80;45.20
27671;DHT22;15077;49.704;9.908;2022-08-19T14:59:55;29.80;45.40
27671;DHT22;15077;49.704;9.908;2022-08-19T15:02:22;29.80;45.30
27671;DHT22;15077;49.704;9.908;2022-08-19T15:04:48;29.80;45.10
27671;DHT22;15077;49.704;9.908;2022-08-19T15:07:15;29.80;45.20
27671;DHT22;15077;49.704;9.908;2022-08-19T15:09:41;29.80;45.30
27671;DHT22;15077;49.704;9.908;2022-08-19T15:12:07;29.80;45.30
27671;DHT22;15077;49.704;9.908;2022-08-19T15:14:36;29.80;45.10
27671;DHT22;15077;49.704;9.908;2022-08-19T15:17:04;29.80;45.00
27671;DHT22;15077;49.704;9.908;2022-08-19T15:19:32;29.80;45.10
27671;DHT22;15077;49.704;9.908;2022-08-19T15:22:01;29.80;45.00
27671;DHT22;15077;49.704;9.908;2022-08-19T15:24:27;29.80;45.10
27671;DHT22;15077;49.704;9.908;2022-08-19T15:26:53;29.80;45.10
27671;DHT22;15077;49.704;9.908;2022-08-19T15:29:21;29.80;45.20
27671;DHT22;15077;49.704;9.908;2022-08-19T15:31:51;29.80;45.10
27671;DHT22;15077;49.704;9.908;2022-08-19T15:34:17;29.80;45.30
27671;DHT22;15077;49.704;9.908;2022-08-19T15:36:43;29.80;45.80
27671;DHT22;15077;49.704;9.908;2022-08-19T15:39:10;29.70;46.10
27671;DHT22;15077;49.704;9.908;2022-08-19T15:41:36;29.70;46.40
27671;DHT22;15077;49.704;9.908;2022-08-19T15:44:08;29.70;46.70
27671;DHT22;15077;49.704;9.908;2022-08-19T15:46:38;29.60;46.80
27671;DHT22;15077;49.704;9.908;2022-08-19T15:49:10;29.60;47.10
27671;DHT22;15077;49.704;9.908;2022-08-19T15:51:39;29.50;47.20
27671;DHT22;15077;49.704;9.908;2022-08-19T15:54:10;29.50;47.20